sensor_id;sensor_type;location;lat;lon;timestamp;P1;durP1;ratioP1;P2;durP2;ratioP2
21905;SDS011;11117;48.644;9.006;2022-12-10T00:01:11;75.33;;;32.87;;
21905;SDS011;11117;48.644;9.006;2022-12-10T00:03:38;74.07;;;33.63;;
21905;SDS011;11117;48.644;9.006;2022-12-10T00:06:05;75.70;;;32.40;;
21905;SDS011;11117;48.644;9.006;2022-12-10T00:08:32;76.00;;;33.00;;
21905;SDS011;11117;48.644;9.006;2022-12-10T00:10:59;71.03;;;33.57;;
21905;SDS011;11117;48.644;9.006;2022-12-10T00:13:24;78.37;;;33.60;;
21905;SDS011;11117;48.644;9.006;2022-12-10T00:15:50;72.80;;;32.63;;
21905;SDS011;11117;48.644;9.006;2022-12-10T00:18:16;80.70;;;34.20;;
21905;SDS011;11117;48.644;9.006;2022-12-10T00:20:41;74.03;;;33.70;;
21905;SDS011;11117;48.644;9.006;2022-12-10T00:23:07;80.47;;;34.73;;
21905;SDS011;11117;48.644;9.006;2022-12-10T00:25:32;69.30;;;33.53;;
21905;SDS011;11117;48.644;9.006;2022-12-10T00:27:58;70.77;;;31.47;;
21905;SDS011;11117;48.644;9.006;2022-12-10T00:30:24;74.17;;;33.77;;
21905;SDS011;11117;48.644;9.006;2022-12-10T00:32:55;75.13;;;33.87;;
21905;SDS011;11117;48.644;9.006;2022-12-10T00:35:21;79.00;;;33.13;;
21905;SDS011;11117;48.644;9.006;2022-12-10T00:37:46;74.20;;;33.63;;
21905;SDS011;11117;48.644;9.006;2022-12-10T00:40:12;76.80;;;33.97;;
21905;SDS011;11117;48.644;9.006;2022-12-10T00:42:38;71.17;;;32.30;;
21905;SDS011;11117;48.644;9.006;2022-12-10T00:45:04;78.53;;;34.67;;
21905;SDS011;11117;48.644;9.006;2022-12-10T00:47:29;73.17;;;32.90;;
21905;SDS011;11117;48.644;9.006;2022-12-10T00:49:55;75.43;;;33.90;;
21905;SDS011;11117;48.644;9.006;2022-12-10T00:52:21;77.03;;;34.57;;
21905;SDS011;11117;48.644;9.006;2022-12-10T00:54:46;72.00;;;32.60;;
21905;SDS011;11117;48.644;9.006;2022-12-10T00:57:12;72.97;;;33.20;;
21905;SDS011;11117;48.644;9.006;2022-12-10T00:59:41;72.73;;;33.70;;
21905;SDS011;11117;48.644;9.006;2022-12-10T01:02:07;71.57;;;33.17;;
21905;SDS011;11117;48.644;9.006;2022-12-10T01:04:33;77.97;;;33.63;;
21905;SDS011;11117;48.644;9.006;2022-12-10T01:06:58;76.73;;;33.40;;
21905;SDS011;11117;48.644;9.006;2022-12-10T01:09:25;70.37;;;31.30;;
21905;SDS011;11117;48.644;9.006;2022-12-10T01:11:52;70.00;;;30.83;;
21905;SDS011;11117;48.644;9.006;2022-12-10T01:14:21;73.70;;;33.43;;
21905;SDS011;11117;48.644;9.006;2022-12-10T01:16:49;71.87;;;33.33;;
21905;SDS011;11117;48.644;9.006;2022-12-10T01:19:17;77.80;;;33.50;;
21905;SDS011;11117;48.644;9.006;2022-12-10T01:21:43;75.83;;;31.77;;
21905;SDS011;11117;48.644;9.006;2022-12-10T01:24:10;75.60;;;32.43;;
21905;SDS011;11117;48.644;9.006;2022-12-10T01:26:36;75.13;;;33.47;;
21905;SDS011;11117;48.644;9.006;2022-12-10T01:29:03;77.90;;;33.70;;
21905;SDS011;11117;48.644;9.006;2022-12-10T01:31:36;72.77;;;33.77;;
21905;SDS011;11117;48.644;9.006;2022-12-10T01:34:03;75.13;;;33.57;;
21905;SDS011;11117;48.644;9.006;2022-12-10T01:36:31;74.03;;;33.67;;
21905;SDS011;11117;48.644;9.006;2022-12-10T01:38:59;70.77;;;32.47;;
21905;SDS011;11117;48.644;9.006;2022-12-10T01:41:30;72.97;;;33.43;;
21905;SDS011;11117;48.644;9.006;2022-12-10T01:44:01;76.23;;;33.00;;
21905;SDS011;11117;48.644;9.006;2022-12-10T01:46:52;70.37;;;33.27;;
21905;SDS011;11117;48.644;9.006;2022-12-10T01:49:20;69.60;;;32.57;;
21905;SDS011;11117;48.644;9.006;2022-12-10T01:51:57;74.37;;;32.83;;
21905;SDS011;11117;48.644;9.006;2022-12-10T01:54:28;75.47;;;33.40;;
21905;SDS011;11117;48.644;9.006;2022-12-10T01:56:59;80.33;;;33.90;;
21905;SDS011;11117;48.644;9.006;2022-12-10T01:59:30;69.33;;;33.53;;
21905;SDS011;11117;48.644;9.006;2022-12-10T02:02:41;70.80;;;32.47;;
21905;SDS011;11117;48.644;9.006;2022-12-10T02:05:07;73.30;;;33.23;;
21905;SDS011;11117;48.644;9.006;2022-12-10T02:08:02;75.53;;;33.63;;
21905;SDS011;11117;48.644;9.006;2022-12-10T02:14:25;76.83;;;33.10;;
21905;SDS011;11117;48.644;9.006;2022-12-10T02:16:26;72.00;;;33.03;;
21905;SDS011;11117;48.644;9.006;2022-12-10T02:19:03;72.47;;;32.07;;
21905;SDS011;11117;48.644;9.006;2022-12-10T02:21:30;70.93;;;33.10;;
21905;SDS011;11117;48.644;9.006;2022-12-10T02:24:01;72.80;;;33.80;;
21905;SDS011;11117;48.644;9.006;2022-12-10T02:29:17;77.37;;;33.47;;
21905;SDS011;11117;48.644;9.006;2022-12-10T02:31:47;75.07;;;33.37;;
21905;SDS011;11117;48.644;9.006;2022-12-10T02:34:18;84.67;;;33.83;;
21905;SDS011;11117;48.644;9.006;2022-12-10T02:36:46;70.47;;;31.90;;
21905;SDS011;11117;48.644;9.006;2022-12-10T02:39:17;72.53;;;33.47;;
21905;SDS011;11117;48.644;9.006;2022-12-10T02:41:48;69.07;;;33.20;;
21905;SDS011;11117;48.644;9.006;2022-12-10T02:44:17;71.87;;;32.70;;
21905;SDS011;11117;48.644;9.006;2022-12-10T02:46:45;77.43;;;34.20;;
21905;SDS011;11117;48.644;9.006;2022-12-10T02:49:13;74.87;;;34.20;;
21905;SDS011;11117;48.644;9.006;2022-12-10T02:51:41;71.27;;;32.30;;
21905;SDS011;11117;48.644;9.006;2022-12-10T02:57:00;74.10;;;33.70;;
21905;SDS011;11117;48.644;9.006;2022-12-10T02:59:33;71.07;;;33.07;;
21905;SDS011;11117;48.644;9.006;2022-12-10T03:02:05;73.17;;;32.93;;
21905;SDS011;11117;48.644;9.006;2022-12-10T03:07:14;69.23;;;31.67;;
21905;SDS011;11117;48.644;9.006;2022-12-10T03:09:51;69.33;;;32.57;;
21905;SDS011;11117;48.644;9.006;2022-12-10T03:12:42;68.90;;;31.13;;
21905;SDS011;11117;48.644;9.006;2022-12-10T03:15:16;68.87;;;31.43;;
21905;SDS011;11117;48.644;9.006;2022-12-10T03:17:44;65.17;;;31.77;;
21905;SDS011;11117;48.644;9.006;2022-12-10T03:20:12;69.53;;;32.37;;
21905;SDS011;11117;48.644;9.006;2022-12-10T03:22:40;68.30;;;32.80;;
21905;SDS011;11117;48.644;9.006;2022-12-10T03:25:08;68.47;;;32.20;;
21905;SDS011;11117;48.644;9.006;2022-12-10T03:27:38;72.13;;;31.93;;
21905;SDS011;11117;48.644;9.006;2022-12-10T03:30:06;68.23;;;32.00;;
21905;SDS011;11117;48.644;9.006;2022-12-10T03:32:32;70.70;;;32.87;;
21905;SDS011;11117;48.644;9.006;2022-12-10T03:34:58;71.93;;;31.47;;
21905;SDS011;11117;48.644;9.006;2022-12-10T03:37:29;69.90;;;32.97;;
21905;SDS011;11117;48.644;9.006;2022-12-10T03:39:55;68.33;;;32.20;;
21905;SDS011;11117;48.644;9.006;2022-12-10T03:42:22;68.73;;;31.40;;
21905;SDS011;11117;48.644;9.006;2022-12-10T03:44:49;71.63;;;31.63;;
21905;SDS011;11117;48.644;9.006;2022-12-10T03:47:15;70.27;;;31.43;;
21905;SDS011;11117;48.644;9.006;2022-12-10T03:49:41;68.67;;;32.17;;
21905;SDS011;11117;48.644;9.006;2022-12-10T03:52:08;69.10;;;32.43;;
21905;SDS011;11117;48.644;9.006;2022-12-10T03:54:34;65.40;;;30.33;;
21905;SDS011;11117;48.644;9.006;2022-12-10T03:56:59;68.70;;;32.00;;
21905;SDS011;11117;48.644;9.006;2022-12-10T03:59:25;71.97;;;31.97;;
21905;SDS011;11117;48.644;9.006;2022-12-10T04:01:51;69.13;;;31.50;;
21905;SDS011;11117;48.644;9.006;2022-12-10T04:04:16;78.33;;;33.73;;
21905;SDS011;11117;48.644;9.006;2022-12-10T04:06:42;72.23;;;31.63;;
21905;SDS011;11117;48.644;9.006;2022-12-10T04:09:11;65.03;;;31.37;;
21905;SDS011;11117;48.644;9.006;2022-12-10T04:11:38;69.83;;;30.87;;
21905;SDS011;11117;48.644;9.006;2022-12-10T04:14:04;74.80;;;33.63;;
21905;SDS011;11117;48.644;9.006;2022-12-10T04:16:30;64.33;;;31.57;;
21905;SDS011;11117;48.644;9.006;2022-12-10T04:19:01;68.23;;;31.50;;
21905;SDS011;11117;48.644;9.006;2022-12-10T04:21:29;72.13;;;32.17;;
21905;SDS011;11117;48.644;9.006;2022-12-10T04:23:56;73.90;;;31.83;;
21905;SDS011;11117;48.644;9.006;2022-12-10T04:26:21;68.03;;;31.80;;
21905;SDS011;11117;48.644;9.006;2022-12-10T04:28:47;69.13;;;31.60;;
21905;SDS011;11117;48.644;9.006;2022-12-10T04:31:12;72.83;;;32.77;;
21905;SDS011;11117;48.644;9.006;2022-12-10T04:33:38;69.43;;;31.13;;
21905;SDS011;11117;48.644;9.006;2022-12-10T04:36:04;70.03;;;31.60;;
21905;SDS011;11117;48.644;9.006;2022-12-10T04:38:29;69.07;;;31.43;;
21905;SDS011;11117;48.644;9.006;2022-12-10T04:40:56;68.23;;;31.57;;
21905;SDS011;11117;48.644;9.006;2022-12-10T04:43:22;68.83;;;32.80;;
21905;SDS011;11117;48.644;9.006;2022-12-10T04:45:47;68.23;;;31.60;;
21905;SDS011;11117;48.644;9.006;2022-12-10T04:48:13;65.23;;;31.13;;
21905;SDS011;11117;48.644;9.006;2022-12-10T04:50:38;68.20;;;31.67;;
21905;SDS011;11117;48.644;9.006;2022-12-10T04:53:04;62.17;;;30.57;;
21905;SDS011;11117;48.644;9.006;2022-12-10T04:55:29;66.53;;;31.60;;
21905;SDS011;11117;48.644;9.006;2022-12-10T04:58:00;69.03;;;30.83;;
21905;SDS011;11117;48.644;9.006;2022-12-10T05:00:25;64.33;;;30.83;;
21905;SDS011;11117;48.644;9.006;2022-12-10T05:02:51;65.83;;;28.93;;
21905;SDS011;11117;48.644;9.006;2022-12-10T05:05:17;76.80;;;32.17;;
21905;SDS011;11117;48.644;9.006;2022-12-10T05:07:42;66.10;;;30.30;;
21905;SDS011;11117;48.644;9.006;2022-12-10T05:10:08;66.33;;;30.87;;
21905;SDS011;11117;48.644;9.006;2022-12-10T05:12:33;72.00;;;31.77;;
21905;SDS011;11117;48.644;9.006;2022-12-10T05:14:59;71.10;;;31.53;;
21905;SDS011;11117;48.644;9.006;2022-12-10T05:17:25;68.40;;;31.77;;
21905;SDS011;11117;48.644;9.006;2022-12-10T05:19:50;67.50;;;30.57;;
21905;SDS011;11117;48.644;9.006;2022-12-10T05:22:16;72.17;;;31.23;;
21905;SDS011;11117;48.644;9.006;2022-12-10T05:24:41;72.17;;;31.37;;
21905;SDS011;11117;48.644;9.006;2022-12-10T05:27:07;69.13;;;31.80;;
21905;SDS011;11117;48.644;9.006;2022-12-10T05:29:33;66.93;;;30.57;;
21905;SDS011;11117;48.644;9.006;2022-12-10T05:31:58;70.87;;;32.50;;
21905;SDS011;11117;48.644;9.006;2022-12-10T05:34:24;69.90;;;31.00;;
21905;SDS011;11117;48.644;9.006;2022-12-10T05:36:50;71.77;;;31.50;;
21905;SDS011;11117;48.644;9.006;2022-12-10T05:39:15;67.10;;;31.70;;
21905;SDS011;11117;48.644;9.006;2022-12-10T05:41:41;66.80;;;31.57;;
21905;SDS011;11117;48.644;9.006;2022-12-10T05:44:07;67.57;;;31.87;;
21905;SDS011;11117;48.644;9.006;2022-12-10T05:46:34;70.07;;;32.07;;
21905;SDS011;11117;48.644;9.006;2022-12-10T05:49:01;70.20;;;31.73;;
21905;SDS011;11117;48.644;9.006;2022-12-10T05:51:31;70.33;;;31.17;;
21905;SDS011;11117;48.644;9.006;2022-12-10T05:53:58;69.00;;;30.00;;
21905;SDS011;11117;48.644;9.006;2022-12-10T05:56:25;66.17;;;31.17;;
21905;SDS011;11117;48.644;9.006;2022-12-10T05:58:53;68.37;;;30.87;;
21905;SDS011;11117;48.644;9.006;2022-12-10T06:01:23;67.90;;;31.97;;
21905;SDS011;11117;48.644;9.006;2022-12-10T06:03:51;69.10;;;31.10;;
21905;SDS011;11117;48.644;9.006;2022-12-10T06:06:21;72.43;;;31.63;;
21905;SDS011;11117;48.644;9.006;2022-12-10T06:08:48;60.07;;;28.93;;
21905;SDS011;11117;48.644;9.006;2022-12-10T06:11:14;65.53;;;29.83;;
21905;SDS011;11117;48.644;9.006;2022-12-10T06:13:39;64.23;;;29.67;;
21905;SDS011;11117;48.644;9.006;2022-12-10T06:16:05;64.67;;;30.13;;
21905;SDS011;11117;48.644;9.006;2022-12-10T06:18:33;63.60;;;29.83;;
21905;SDS011;11117;48.644;9.006;2022-12-10T06:20:58;65.40;;;30.30;;
21905;SDS011;11117;48.644;9.006;2022-12-10T06:23:27;65.40;;;31.20;;
21905;SDS011;11117;48.644;9.006;2022-12-10T06:25:52;62.13;;;29.63;;
21905;SDS011;11117;48.644;9.006;2022-12-10T06:28:18;52.23;;;22.43;;
21905;SDS011;11117;48.644;9.006;2022-12-10T06:30:43;61.90;;;28.43;;
21905;SDS011;11117;48.644;9.006;2022-12-10T06:33:12;62.73;;;28.30;;
21905;SDS011;11117;48.644;9.006;2022-12-10T06:35:38;58.53;;;27.20;;
21905;SDS011;11117;48.644;9.006;2022-12-10T06:38:03;65.53;;;30.97;;
21905;SDS011;11117;48.644;9.006;2022-12-10T06:40:29;61.33;;;28.90;;
21905;SDS011;11117;48.644;9.006;2022-12-10T06:42:54;67.00;;;29.80;;
21905;SDS011;11117;48.644;9.006;2022-12-10T06:45:20;66.53;;;29.27;;
21905;SDS011;11117;48.644;9.006;2022-12-10T06:47:45;58.13;;;28.80;;
21905;SDS011;11117;48.644;9.006;2022-12-10T06:50:11;61.73;;;27.93;;
21905;SDS011;11117;48.644;9.006;2022-12-10T06:52:37;56.83;;;24.23;;
21905;SDS011;11117;48.644;9.006;2022-12-10T06:55:02;57.60;;;26.57;;
21905;SDS011;11117;48.644;9.006;2022-12-10T06:57:28;57.07;;;27.50;;
21905;SDS011;11117;48.644;9.006;2022-12-10T06:59:54;60.60;;;28.67;;
21905;SDS011;11117;48.644;9.006;2022-12-10T07:02:19;60.40;;;29.37;;
21905;SDS011;11117;48.644;9.006;2022-12-10T07:04:45;62.87;;;29.10;;
21905;SDS011;11117;48.644;9.006;2022-12-10T07:07:10;62.23;;;29.03;;
21905;SDS011;11117;48.644;9.006;2022-12-10T07:09:36;60.20;;;27.27;;
21905;SDS011;11117;48.644;9.006;2022-12-10T07:12:02;57.97;;;25.70;;
21905;SDS011;11117;48.644;9.006;2022-12-10T07:14:27;64.70;;;28.60;;
21905;SDS011;11117;48.644;9.006;2022-12-10T07:16:53;71.97;;;32.13;;
21905;SDS011;11117;48.644;9.006;2022-12-10T07:19:18;63.57;;;29.60;;
21905;SDS011;11117;48.644;9.006;2022-12-10T07:21:44;64.17;;;30.73;;
21905;SDS011;11117;48.644;9.006;2022-12-10T07:24:10;67.77;;;30.17;;
21905;SDS011;11117;48.644;9.006;2022-12-10T07:26:44;53.40;;;24.07;;
21905;SDS011;11117;48.644;9.006;2022-12-10T07:29:17;47.23;;;20.40;;
21905;SDS011;11117;48.644;9.006;2022-12-10T07:31:46;69.77;;;31.30;;
21905;SDS011;11117;48.644;9.006;2022-12-10T07:34:13;71.27;;;31.40;;
21905;SDS011;11117;48.644;9.006;2022-12-10T07:36:39;49.23;;;22.13;;
21905;SDS011;11117;48.644;9.006;2022-12-10T07:39:05;60.07;;;25.83;;
21905;SDS011;11117;48.644;9.006;2022-12-10T07:41:32;60.90;;;28.00;;
21905;SDS011;11117;48.644;9.006;2022-12-10T07:43:58;67.20;;;31.10;;
21905;SDS011;11117;48.644;9.006;2022-12-10T07:46:28;63.73;;;29.50;;
21905;SDS011;11117;48.644;9.006;2022-12-10T07:48:56;65.93;;;28.80;;
21905;SDS011;11117;48.644;9.006;2022-12-10T07:51:24;64.43;;;29.20;;
21905;SDS011;11117;48.644;9.006;2022-12-10T07:53:53;62.07;;;28.73;;
21905;SDS011;11117;48.644;9.006;2022-12-10T07:56:19;67.63;;;30.73;;
21905;SDS011;11117;48.644;9.006;2022-12-10T07:58:46;312.97;;;40.03;;
21905;SDS011;11117;48.644;9.006;2022-12-10T08:01:13;62.83;;;28.03;;
21905;SDS011;11117;48.644;9.006;2022-12-10T08:03:43;1920.10;;;91.70;;
21905;SDS011;11117;48.644;9.006;2022-12-10T08:06:09;66.20;;;30.67;;
21905;SDS011;11117;48.644;9.006;2022-12-10T08:08:40;58.90;;;25.70;;
21905;SDS011;11117;48.644;9.006;2022-12-10T08:11:06;60.23;;;27.97;;
21905;SDS011;11117;48.644;9.006;2022-12-10T08:13:32;66.23;;;30.03;;
21905;SDS011;11117;48.644;9.006;2022-12-10T08:16:05;61.03;;;26.40;;
21905;SDS011;11117;48.644;9.006;2022-12-10T08:18:33;58.37;;;25.77;;
21905;SDS011;11117;48.644;9.006;2022-12-10T08:21:10;62.67;;;30.07;;
21905;SDS011;11117;48.644;9.006;2022-12-10T08:23:36;60.97;;;28.50;;
21905;SDS011;11117;48.644;9.006;2022-12-10T08:26:03;55.43;;;23.40;;
21905;SDS011;11117;48.644;9.006;2022-12-10T08:28:29;64.73;;;28.40;;
21905;SDS011;11117;48.644;9.006;2022-12-10T08:30:55;64.67;;;29.10;;
21905;SDS011;11117;48.644;9.006;2022-12-10T08:33:20;65.80;;;27.63;;
21905;SDS011;11117;48.644;9.006;2022-12-10T08:35:46;61.73;;;28.83;;
21905;SDS011;11117;48.644;9.006;2022-12-10T08:38:11;68.97;;;30.77;;
21905;SDS011;11117;48.644;9.006;2022-12-10T08:40:41;66.37;;;30.10;;
21905;SDS011;11117;48.644;9.006;2022-12-10T08:43:07;54.67;;;24.50;;
21905;SDS011;11117;48.644;9.006;2022-12-10T08:45:32;63.00;;;30.50;;
21905;SDS011;11117;48.644;9.006;2022-12-10T08:47:58;60.13;;;27.37;;
21905;SDS011;11117;48.644;9.006;2022-12-10T08:50:24;60.50;;;28.43;;
21905;SDS011;11117;48.644;9.006;2022-12-10T08:52:50;56.50;;;26.80;;
21905;SDS011;11117;48.644;9.006;2022-12-10T08:55:15;57.13;;;27.87;;
21905;SDS011;11117;48.644;9.006;2022-12-10T08:57:41;58.80;;;26.67;;
21905;SDS011;11117;48.644;9.006;2022-12-10T09:00:06;55.73;;;28.33;;
21905;SDS011;11117;48.644;9.006;2022-12-10T09:02:32;41.37;;;18.00;;
21905;SDS011;11117;48.644;9.006;2022-12-10T09:04:58;56.40;;;25.30;;
21905;SDS011;11117;48.644;9.006;2022-12-10T09:07:23;58.43;;;28.13;;
21905;SDS011;11117;48.644;9.006;2022-12-10T09:09:49;47.93;;;22.33;;
21905;SDS011;11117;48.644;9.006;2022-12-10T09:12:15;47.00;;;22.63;;
21905;SDS011;11117;48.644;9.006;2022-12-10T09:14:40;53.97;;;27.03;;
21905;SDS011;11117;48.644;9.006;2022-12-10T09:17:06;57.30;;;28.37;;
21905;SDS011;11117;48.644;9.006;2022-12-10T09:19:31;57.83;;;28.90;;
21905;SDS011;11117;48.644;9.006;2022-12-10T09:21:57;56.20;;;24.87;;
21905;SDS011;11117;48.644;9.006;2022-12-10T09:24:22;63.33;;;28.20;;
21905;SDS011;11117;48.644;9.006;2022-12-10T09:26:48;57.03;;;27.50;;
21905;SDS011;11117;48.644;9.006;2022-12-10T09:29:21;60.87;;;27.70;;
21905;SDS011;11117;48.644;9.006;2022-12-10T09:32:07;56.17;;;24.83;;
21905;SDS011;11117;48.644;9.006;2022-12-10T09:34:32;58.07;;;28.10;;
21905;SDS011;11117;48.644;9.006;2022-12-10T09:36:58;54.27;;;24.23;;
21905;SDS011;11117;48.644;9.006;2022-12-10T09:39:23;61.10;;;28.10;;
21905;SDS011;11117;48.644;9.006;2022-12-10T09:46:57;54.63;;;28.10;;
21905;SDS011;11117;48.644;9.006;2022-12-10T09:49:42;56.57;;;27.83;;
21905;SDS011;11117;48.644;9.006;2022-12-10T09:52:20;60.33;;;28.10;;
21905;SDS011;11117;48.644;9.006;2022-12-10T09:54:57;57.73;;;27.73;;
21905;SDS011;11117;48.644;9.006;2022-12-10T10:00:25;55.23;;;25.83;;
21905;SDS011;11117;48.644;9.006;2022-12-10T10:03:00;51.33;;;25.97;;
21905;SDS011;11117;48.644;9.006;2022-12-10T10:05:30;60.00;;;26.30;;
21905;SDS011;11117;48.644;9.006;2022-12-10T10:08:04;54.90;;;25.67;;
21905;SDS011;11117;48.644;9.006;2022-12-10T10:10:40;51.63;;;25.17;;
21905;SDS011;11117;48.644;9.006;2022-12-10T10:15:32;48.90;;;22.90;;
21905;SDS011;11117;48.644;9.006;2022-12-10T10:21:07;36.13;;;15.53;;
21905;SDS011;11117;48.644;9.006;2022-12-10T10:23:45;35.70;;;16.57;;
21905;SDS011;11117;48.644;9.006;2022-12-10T10:26:11;50.47;;;25.83;;
21905;SDS011;11117;48.644;9.006;2022-12-10T10:28:36;57.83;;;27.33;;
21905;SDS011;11117;48.644;9.006;2022-12-10T10:31:09;55.70;;;27.03;;
21905;SDS011;11117;48.644;9.006;2022-12-10T10:33:54;50.43;;;23.90;;
21905;SDS011;11117;48.644;9.006;2022-12-10T10:36:34;56.07;;;25.90;;
21905;SDS011;11117;48.644;9.006;2022-12-10T10:41:43;51.97;;;25.57;;
21905;SDS011;11117;48.644;9.006;2022-12-10T10:44:15;55.97;;;27.30;;
21905;SDS011;11117;48.644;9.006;2022-12-10T10:46:44;44.77;;;19.70;;
21905;SDS011;11117;48.644;9.006;2022-12-10T10:49:30;54.27;;;26.17;;
21905;SDS011;11117;48.644;9.006;2022-12-10T10:52:15;53.67;;;25.50;;
21905;SDS011;11117;48.644;9.006;2022-12-10T10:54:45;50.53;;;23.87;;
21905;SDS011;11117;48.644;9.006;2022-12-10T10:59:45;45.20;;;21.50;;
21905;SDS011;11117;48.644;9.006;2022-12-10T11:02:19;43.47;;;20.37;;
21905;SDS011;11117;48.644;9.006;2022-12-10T11:04:57;50.23;;;25.20;;
21905;SDS011;11117;48.644;9.006;2022-12-10T11:07:33;44.37;;;20.13;;
21905;SDS011;11117;48.644;9.006;2022-12-10T11:10:00;50.97;;;26.07;;
21905;SDS011;11117;48.644;9.006;2022-12-10T11:14:58;50.43;;;24.77;;
21905;SDS011;11117;48.644;9.006;2022-12-10T11:17:24;60.13;;;27.67;;
21905;SDS011;11117;48.644;9.006;2022-12-10T11:22:35;46.50;;;23.53;;
21905;SDS011;11117;48.644;9.006;2022-12-10T11:25:00;46.97;;;22.90;;
21905;SDS011;11117;48.644;9.006;2022-12-10T11:30:04;44.30;;;22.07;;
21905;SDS011;11117;48.644;9.006;2022-12-10T11:38:45;47.83;;;22.60;;
21905;SDS011;11117;48.644;9.006;2022-12-10T11:41:30;37.53;;;18.67;;
21905;SDS011;11117;48.644;9.006;2022-12-10T11:49:38;47.37;;;24.57;;
21905;SDS011;11117;48.644;9.006;2022-12-10T11:55:32;46.30;;;23.93;;
21905;SDS011;11117;48.644;9.006;2022-12-10T12:23:29;32.00;;;15.50;;
21905;SDS011;11117;48.644;9.006;2022-12-10T12:36:56;47.03;;;23.20;;
21905;SDS011;11117;48.644;9.006;2022-12-10T12:50:24;47.33;;;22.10;;
21905;SDS011;11117;48.644;9.006;2022-12-10T12:52:58;41.20;;;22.43;;
21905;SDS011;11117;48.644;9.006;2022-12-10T13:00:28;45.83;;;23.20;;
21905;SDS011;11117;48.644;9.006;2022-12-10T13:05:32;32.87;;;17.83;;
21905;SDS011;11117;48.644;9.006;2022-12-10T13:10:53;39.87;;;19.67;;
21905;SDS011;11117;48.644;9.006;2022-12-10T13:15:50;32.97;;;14.77;;
21905;SDS011;11117;48.644;9.006;2022-12-10T13:20:45;31.13;;;16.00;;
21905;SDS011;11117;48.644;9.006;2022-12-10T13:23:30;37.57;;;19.63;;
21905;SDS011;11117;48.644;9.006;2022-12-10T13:25:58;37.03;;;18.53;;
21905;SDS011;11117;48.644;9.006;2022-12-10T13:31:07;40.30;;;19.90;;
21905;SDS011;11117;48.644;9.006;2022-12-10T13:33:46;44.60;;;20.77;;
21905;SDS011;11117;48.644;9.006;2022-12-10T13:43:59;42.33;;;20.50;;
21905;SDS011;11117;48.644;9.006;2022-12-10T13:48:54;43.87;;;19.77;;
21905;SDS011;11117;48.644;9.006;2022-12-10T13:59:55;29.90;;;15.67;;
21905;SDS011;11117;48.644;9.006;2022-12-10T14:02:37;42.17;;;21.47;;
21905;SDS011;11117;48.644;9.006;2022-12-10T14:08:34;41.20;;;18.70;;
21905;SDS011;11117;48.644;9.006;2022-12-10T14:11:01;41.40;;;20.00;;
21905;SDS011;11117;48.644;9.006;2022-12-10T14:13:36;43.77;;;20.63;;
21905;SDS011;11117;48.644;9.006;2022-12-10T14:16:06;44.53;;;20.60;;
21905;SDS011;11117;48.644;9.006;2022-12-10T14:18:36;46.63;;;20.83;;
21905;SDS011;11117;48.644;9.006;2022-12-10T14:21:06;34.60;;;15.70;;
21905;SDS011;11117;48.644;9.006;2022-12-10T14:23:32;43.53;;;19.43;;
21905;SDS011;11117;48.644;9.006;2022-12-10T14:26:15;43.57;;;19.57;;
21905;SDS011;11117;48.644;9.006;2022-12-10T14:28:44;38.30;;;17.83;;
21905;SDS011;11117;48.644;9.006;2022-12-10T14:31:14;48.60;;;22.33;;
21905;SDS011;11117;48.644;9.006;2022-12-10T14:33:46;49.83;;;21.17;;
21905;SDS011;11117;48.644;9.006;2022-12-10T14:36:17;40.63;;;18.80;;
21905;SDS011;11117;48.644;9.006;2022-12-10T14:38:49;46.17;;;19.40;;
21905;SDS011;11117;48.644;9.006;2022-12-10T14:41:17;45.30;;;21.43;;
21905;SDS011;11117;48.644;9.006;2022-12-10T14:43:46;29.83;;;12.57;;
21905;SDS011;11117;48.644;9.006;2022-12-10T14:46:14;46.50;;;19.23;;
21905;SDS011;11117;48.644;9.006;2022-12-10T14:48:44;39.20;;;16.17;;
21905;SDS011;11117;48.644;9.006;2022-12-10T14:51:14;46.13;;;17.93;;
21905;SDS011;11117;48.644;9.006;2022-12-10T14:53:42;51.67;;;21.73;;
21905;SDS011;11117;48.644;9.006;2022-12-10T14:56:08;51.70;;;19.17;;
21905;SDS011;11117;48.644;9.006;2022-12-10T14:58:40;45.93;;;20.07;;
21905;SDS011;11117;48.644;9.006;2022-12-10T15:01:13;47.20;;;20.67;;
21905;SDS011;11117;48.644;9.006;2022-12-10T15:03:44;59.83;;;21.30;;
21905;SDS011;11117;48.644;9.006;2022-12-10T15:06:17;69.27;;;22.90;;
21905;SDS011;11117;48.644;9.006;2022-12-10T15:08:44;34.87;;;13.37;;
21905;SDS011;11117;48.644;9.006;2022-12-10T15:11:12;59.47;;;19.33;;
21905;SDS011;11117;48.644;9.006;2022-12-10T15:13:42;62.60;;;22.53;;
21905;SDS011;11117;48.644;9.006;2022-12-10T15:16:19;51.50;;;23.40;;
21905;SDS011;11117;48.644;9.006;2022-12-10T15:18:55;43.67;;;19.90;;
21905;SDS011;11117;48.644;9.006;2022-12-10T15:21:56;46.13;;;21.13;;
21905;SDS011;11117;48.644;9.006;2022-12-10T15:24:37;42.07;;;19.80;;
21905;SDS011;11117;48.644;9.006;2022-12-10T15:27:20;44.60;;;20.30;;
21905;SDS011;11117;48.644;9.006;2022-12-10T15:29:50;46.20;;;20.50;;
21905;SDS011;11117;48.644;9.006;2022-12-10T15:34:52;46.80;;;20.67;;
21905;SDS011;11117;48.644;9.006;2022-12-10T15:39:51;25.93;;;10.47;;
21905;SDS011;11117;48.644;9.006;2022-12-10T15:42:29;30.33;;;14.13;;
21905;SDS011;11117;48.644;9.006;2022-12-10T15:45:26;39.93;;;18.83;;
21905;SDS011;11117;48.644;9.006;2022-12-10T15:47:51;29.07;;;12.13;;
21905;SDS011;11117;48.644;9.006;2022-12-10T15:50:21;47.93;;;22.07;;
21905;SDS011;11117;48.644;9.006;2022-12-10T15:52:47;43.07;;;20.23;;
21905;SDS011;11117;48.644;9.006;2022-12-10T15:55:12;39.30;;;18.27;;
21905;SDS011;11117;48.644;9.006;2022-12-10T15:57:39;43.50;;;17.03;;
21905;SDS011;11117;48.644;9.006;2022-12-10T16:00:07;43.77;;;19.20;;
21905;SDS011;11117;48.644;9.006;2022-12-10T16:02:41;26.03;;;12.10;;
21905;SDS011;11117;48.644;9.006;2022-12-10T16:05:13;34.13;;;14.60;;
21905;SDS011;11117;48.644;9.006;2022-12-10T16:07:42;44.90;;;18.60;;
21905;SDS011;11117;48.644;9.006;2022-12-10T16:10:09;34.27;;;13.80;;
21905;SDS011;11117;48.644;9.006;2022-12-10T16:12:36;46.23;;;20.47;;
21905;SDS011;11117;48.644;9.006;2022-12-10T16:15:03;44.17;;;19.17;;
21905;SDS011;11117;48.644;9.006;2022-12-10T16:17:30;45.50;;;22.33;;
21905;SDS011;11117;48.644;9.006;2022-12-10T16:19:57;38.80;;;15.77;;
21905;SDS011;11117;48.644;9.006;2022-12-10T16:22:24;54.27;;;24.20;;
21905;SDS011;11117;48.644;9.006;2022-12-10T16:24:50;36.47;;;16.00;;
21905;SDS011;11117;48.644;9.006;2022-12-10T16:27:15;51.63;;;22.97;;
21905;SDS011;11117;48.644;9.006;2022-12-10T16:29:42;34.13;;;15.17;;
21905;SDS011;11117;48.644;9.006;2022-12-10T16:32:11;50.73;;;22.43;;
21905;SDS011;11117;48.644;9.006;2022-12-10T16:34:38;33.57;;;14.07;;
21905;SDS011;11117;48.644;9.006;2022-12-10T16:37:04;40.60;;;17.80;;
21905;SDS011;11117;48.644;9.006;2022-12-10T16:39:30;43.73;;;20.20;;
21905;SDS011;11117;48.644;9.006;2022-12-10T16:41:56;45.40;;;21.63;;
21905;SDS011;11117;48.644;9.006;2022-12-10T16:44:22;41.70;;;18.33;;
21905;SDS011;11117;48.644;9.006;2022-12-10T16:46:48;39.33;;;19.03;;
21905;SDS011;11117;48.644;9.006;2022-12-10T16:49:13;35.07;;;13.47;;
21905;SDS011;11117;48.644;9.006;2022-12-10T16:51:39;41.83;;;18.27;;
21905;SDS011;11117;48.644;9.006;2022-12-10T16:54:05;40.97;;;19.50;;
21905;SDS011;11117;48.644;9.006;2022-12-10T16:56:34;32.70;;;13.97;;